sensor_id;sensor_type;location;lat;lon;timestamp;pressure;altitude;pressure_sealevel;temperature;humidity
17260;BME280;8746;49.230;9.220;2023-01-25T00:01:39;101750.81;;;1.19;100.00
17260;BME280;8746;49.230;9.220;2023-01-25T00:04:04;101756.09;;;1.22;100.00
17260;BME280;8746;49.230;9.220;2023-01-25T00:06:29;101751.38;;;1.08;100.00
17260;BME280;8746;49.230;9.220;2023-01-25T00:08:55;101749.06;;;1.18;100.00
17260;BME280;8746;49.230;9.220;2023-01-25T00:11:20;101751.97;;;0.98;100.00
17260;BME280;8746;49.230;9.220;2023-01-25T00:13:46;101753.66;;;0.96;100.00
17260;BME280;8746;49.230;9.220;2023-01-25T00:16:11;101754.75;;;1.04;100.00
17260;BME280;8746;49.230;9.220;2023-01-25T00:18:36;101745.75;;;0.93;100.00
17260;BME280;8746;49.230;9.220;2023-01-25T00:21:31;101745.19;;;1.03;100.00
17260;BME280;8746;49.230;9.220;2023-01-25T00:23:58;101739.03;;;1.00;100.00
17260;BME280;8746;49.230;9.220;2023-01-25T00:26:23;101733.06;;;1.04;100.00
17260;BME280;8746;49.230;9.220;2023-01-25T00:28:53;101729.41;;;0.97;100.00
17260;BME280;8746;49.230;9.220;2023-01-25T00:31:53;101724.38;;;1.03;100.00
17260;BME280;8746;49.230;9.220;2023-01-25T00:36:54;101728.81;;;1.07;100.00
17260;BME280;8746;49.230;9.220;2023-01-25T00:39:21;101717.44;;;1.02;100.00
17260;BME280;8746;49.230;9.220;2023-01-25T00:41:46;101710.47;;;1.01;100.00
17260;BME280;8746;49.230;9.220;2023-01-25T00:44:12;101708.63;;;0.97;100.00
17260;BME280;8746;49.230;9.220;2023-01-25T00:46:37;101700.97;;;1.02;100.00
17260;BME280;8746;49.230;9.220;2023-01-25T00:49:02;101697.69;;;1.09;100.00
17260;BME280;8746;49.230;9.220;2023-01-25T00:51:27;101708.53;;;0.94;100.00
17260;BME280;8746;49.230;9.220;2023-01-25T00:53:53;101705.25;;;1.01;100.00
17260;BME280;8746;49.230;9.220;2023-01-25T00:56:18;101701.94;;;1.05;100.00
17260;BME280;8746;49.230;9.220;2023-01-25T00:58:44;101702.75;;;1.04;100.00
17260;BME280;8746;49.230;9.220;2023-01-25T01:01:10;101701.66;;;0.96;100.00
17260;BME280;8746;49.230;9.220;2023-01-25T01:03:36;101699.88;;;0.93;100.00
17260;BME280;8746;49.230;9.220;2023-01-25T01:06:11;101697.28;;;0.93;100.00
17260;BME280;8746;49.230;9.220;2023-01-25T01:08:40;101698.91;;;0.90;100.00
17260;BME280;8746;49.230;9.220;2023-01-25T01:11:09;101702.47;;;0.63;100.00
17260;BME280;8746;49.230;9.220;2023-01-25T01:13:36;101699.19;;;0.69;100.00
17260;BME280;8746;49.230;9.220;2023-01-25T01:16:05;101698.06;;;0.60;100.00
17260;BME280;8746;49.230;9.220;2023-01-25T01:18:37;101701.97;;;0.75;100.00
17260;BME280;8746;49.230;9.220;2023-01-25T01:21:03;101699.38;;;0.76;100.00
17260;BME280;8746;49.230;9.220;2023-01-25T01:23:29;101695.50;;;0.92;100.00
17260;BME280;8746;49.230;9.220;2023-01-25T01:25:55;101704.00;;;0.87;100.00
17260;BME280;8746;49.230;9.220;2023-01-25T01:28:23;101690.34;;;0.94;100.00
17260;BME280;8746;49.230;9.220;2023-01-25T01:30:48;101699.56;;;0.83;100.00
17260;BME280;8746;49.230;9.220;2023-01-25T01:33:14;101699.13;;;0.67;100.00
17260;BME280;8746;49.230;9.220;2023-01-25T01:35:39;101701.19;;;0.79;100.00
17260;BME280;8746;49.230;9.220;2023-01-25T01:38:04;101702.69;;;0.71;100.00
17260;BME280;8746;49.230;9.220;2023-01-25T01:40:30;101709.69;;;0.73;100.00
17260;BME280;8746;49.230;9.220;2023-01-25T01:43:00;101714.47;;;0.88;100.00
17260;BME280;8746;49.230;9.220;2023-01-25T01:48:37;101708.03;;;0.75;100.00
17260;BME280;8746;49.230;9.220;2023-01-25T01:53:42;101703.66;;;0.74;100.00
17260;BME280;8746;49.230;9.220;2023-01-25T01:56:12;101705.25;;;0.69;100.00
17260;BME280;8746;49.230;9.220;2023-01-25T01:58:41;101698.31;;;0.70;100.00
17260;BME280;8746;49.230;9.220;2023-01-25T02:01:07;101702.59;;;0.66;100.00
17260;BME280;8746;49.230;9.220;2023-01-25T02:03:33;101693.09;;;0.68;100.00
17260;BME280;8746;49.230;9.220;2023-01-25T02:06:14;101699.13;;;0.67;100.00
17260;BME280;8746;49.230;9.220;2023-01-25T02:08:43;101698.06;;;0.60;100.00
17260;BME280;8746;49.230;9.220;2023-01-25T02:11:09;101688.66;;;0.64;100.00
17260;BME280;8746;49.230;9.220;2023-01-25T02:13:36;101685.22;;;0.65;100.00
17260;BME280;8746;49.230;9.220;2023-01-25T02:16:02;101690.34;;;0.63;100.00
17260;BME280;8746;49.230;9.220;2023-01-25T02:18:28;101684.56;;;0.72;100.00
17260;BME280;8746;49.230;9.220;2023-01-25T02:20:56;101682.47;;;0.59;100.00
17260;BME280;8746;49.230;9.220;2023-01-25T02:23:32;101681.53;;;0.57;100.00
17260;BME280;8746;49.230;9.220;2023-01-25T02:26:03;101680.03;;;0.65;100.00
17260;BME280;8746;49.230;9.220;2023-01-25T02:28:34;101681.69;;;0.63;100.00
17260;BME280;8746;49.230;9.220;2023-01-25T02:31:01;101680.69;;;0.58;100.00
17260;BME280;8746;49.230;9.220;2023-01-25T02:33:27;101681.41;;;0.54;100.00
17260;BME280;8746;49.230;9.220;2023-01-25T02:35:58;101673.59;;;0.52;100.00
17260;BME280;8746;49.230;9.220;2023-01-25T02:38:25;101684.00;;;0.54;100.00
17260;BME280;8746;49.230;9.220;2023-01-25T02:40:54;101677.91;;;0.52;100.00
17260;BME280;8746;49.230;9.220;2023-01-25T02:43:22;101672.44;;;0.42;100.00
17260;BME280;8746;49.230;9.220;2023-01-25T02:45:57;101672.44;;;0.42;100.00
17260;BME280;8746;49.230;9.220;2023-01-25T02:48:24;101671.75;;;0.48;100.00
17260;BME280;8746;49.230;9.220;2023-01-25T02:50:50;101670.81;;;0.46;100.00
17260;BME280;8746;49.230;9.220;2023-01-25T02:53:15;101679.44;;;0.45;100.00
17260;BME280;8746;49.230;9.220;2023-01-25T02:55:40;101670.66;;;0.40;100.00
17260;BME280;8746;49.230;9.220;2023-01-25T02:58:06;101668.22;;;0.46;100.00
17260;BME280;8746;49.230;9.220;2023-01-25T03:00:31;101674.38;;;0.50;100.00
17260;BME280;8746;49.230;9.220;2023-01-25T03:02:56;101678.56;;;0.44;100.00
17260;BME280;8746;49.230;9.220;2023-01-25T03:05:22;101671.00;;;0.52;100.00
17260;BME280;8746;49.230;9.220;2023-01-25T03:07:47;101670.75;;;0.43;100.00
17260;BME280;8746;49.230;9.220;2023-01-25T03:10:13;101671.69;;;0.46;100.00
17260;BME280;8746;49.230;9.220;2023-01-25T03:12:38;101664.28;;;0.59;100.00
17260;BME280;8746;49.230;9.220;2023-01-25T03:15:04;101662.53;;;0.59;100.00
17260;BME280;8746;49.230;9.220;2023-01-25T03:17:30;101667.78;;;0.61;100.00
17260;BME280;8746;49.230;9.220;2023-01-25T03:19:55;101654.97;;;0.67;100.00
17260;BME280;8746;49.230;9.220;2023-01-25T03:22:21;101645.59;;;0.72;100.00
17260;BME280;8746;49.230;9.220;2023-01-25T03:24:46;101651.41;;;0.63;100.00
17260;BME280;8746;49.230;9.220;2023-01-25T03:27:11;101644.69;;;0.72;100.00
17260;BME280;8746;49.230;9.220;2023-01-25T03:29:43;101639.31;;;0.64;100.00
17260;BME280;8746;49.230;9.220;2023-01-25T03:32:08;101635.03;;;0.66;100.00
17260;BME280;8746;49.230;9.220;2023-01-25T03:34:34;101642.91;;;0.69;100.00
17260;BME280;8746;49.230;9.220;2023-01-25T03:36:59;101642.84;;;0.66;100.00
17260;BME280;8746;49.230;9.220;2023-01-25T03:39:24;101638.47;;;0.65;100.00
17260;BME280;8746;49.230;9.220;2023-01-25T03:41:50;101648.88;;;0.65;100.00
17260;BME280;8746;49.230;9.220;2023-01-25T03:44:15;101640.50;;;0.77;100.00
17260;BME280;8746;49.230;9.220;2023-01-25T03:46:41;101641.31;;;0.74;100.00
17260;BME280;8746;49.230;9.220;2023-01-25T03:49:07;101645.22;;;0.60;100.00
17260;BME280;8746;49.230;9.220;2023-01-25T03:51:33;101640.34;;;0.71;100.00
17260;BME280;8746;49.230;9.220;2023-01-25T03:53:58;101629.75;;;0.63;100.00
17260;BME280;8746;49.230;9.220;2023-01-25T03:56:24;101633.94;;;0.58;100.00
17260;BME280;8746;49.230;9.220;2023-01-25T03:58:50;101633.00;;;0.56;100.00
17260;BME280;8746;49.230;9.220;2023-01-25T04:01:15;101638.66;;;0.41;100.00
17260;BME280;8746;49.230;9.220;2023-01-25T04:03:40;101643.06;;;0.43;100.00
17260;BME280;8746;49.230;9.220;2023-01-25T04:06:06;101633.00;;;0.56;100.00
17260;BME280;8746;49.230;9.220;2023-01-25T04:08:32;101626.38;;;0.67;100.00
17260;BME280;8746;49.230;9.220;2023-01-25T04:11:04;101620.50;;;0.73;100.00
17260;BME280;8746;49.230;9.220;2023-01-25T04:13:30;101626.22;;;0.61;100.00
17260;BME280;8746;49.230;9.220;2023-01-25T04:15:56;101619.09;;;0.54;100.00
17260;BME280;8746;49.230;9.220;2023-01-25T04:18:21;101621.84;;;0.60;100.00
17260;BME280;8746;49.230;9.220;2023-01-25T04:20:54;101627.25;;;0.66;100.00
17260;BME280;8746;49.230;9.220;2023-01-25T04:23:20;101624.38;;;0.57;100.00
17260;BME280;8746;49.230;9.220;2023-01-25T04:25:57;101623.44;;;0.55;100.00
17260;BME280;8746;49.230;9.220;2023-01-25T04:28:23;101623.91;;;0.72;100.00
17260;BME280;8746;49.230;9.220;2023-01-25T04:30:49;101619.09;;;0.54;100.00
17260;BME280;8746;49.230;9.220;2023-01-25T04:33:14;101623.03;;;0.39;100.00
17260;BME280;8746;49.230;9.220;2023-01-25T04:35:40;101619.22;;;0.58;100.00
17260;BME280;8746;49.230;9.220;2023-01-25T04:38:05;101619.50;;;0.68;100.00
17260;BME280;8746;49.230;9.220;2023-01-25T04:40:31;101609.16;;;0.71;100.00
17260;BME280;8746;49.230;9.220;2023-01-25T04:42:57;101619.69;;;0.75;100.00
17260;BME280;8746;49.230;9.220;2023-01-25T04:45:23;101615.94;;;0.64;100.00
17260;BME280;8746;49.230;9.220;2023-01-25T04:47:53;101612.56;;;0.68;100.00
17260;BME280;8746;49.230;9.220;2023-01-25T04:50:19;101617.09;;;0.75;100.00
17260;BME280;8746;49.230;9.220;2023-01-25T04:52:44;101609.41;;;0.78;100.00
17260;BME280;8746;49.230;9.220;2023-01-25T04:55:09;101609.56;;;0.85;100.00
17260;BME280;8746;49.230;9.220;2023-01-25T04:57:35;101605.34;;;0.90;100.00
17260;BME280;8746;49.230;9.220;2023-01-25T05:00:00;101614.97;;;0.60;100.00
17260;BME280;8746;49.230;9.220;2023-01-25T05:02:26;101603.06;;;0.69;100.00
17260;BME280;8746;49.230;9.220;2023-01-25T05:04:51;101609.06;;;0.66;100.00
17260;BME280;8746;49.230;9.220;2023-01-25T05:07:17;101618.25;;;0.55;100.00
17260;BME280;8746;49.230;9.220;2023-01-25T05:09:42;101611.31;;;0.54;100.00
17260;BME280;8746;49.230;9.220;2023-01-25T05:12:07;101607.53;;;0.74;100.00
17260;BME280;8746;49.230;9.220;2023-01-25T05:14:36;101614.34;;;0.69;100.00
17260;BME280;8746;49.230;9.220;2023-01-25T05:17:03;101609.81;;;0.62;100.00
17260;BME280;8746;49.230;9.220;2023-01-25T05:19:28;101608.44;;;0.75;100.00
17260;BME280;8746;49.230;9.220;2023-01-25T05:21:53;101605.69;;;0.70;100.00
17260;BME280;8746;49.230;9.220;2023-01-25T05:24:23;101600.31;;;0.62;100.00
17260;BME280;8746;49.230;9.220;2023-01-25T05:26:48;101600.25;;;0.61;100.00
17260;BME280;8746;49.230;9.220;2023-01-25T05:29:31;101595.13;;;0.62;100.00
17260;BME280;8746;49.230;9.220;2023-01-25T05:32:00;101604.47;;;0.57;100.00
17260;BME280;8746;49.230;9.220;2023-01-25T05:34:25;101602.69;;;0.55;100.00
17260;BME280;8746;49.230;9.220;2023-01-25T05:36:50;101591.56;;;0.59;100.00
17260;BME280;8746;49.230;9.220;2023-01-25T05:39:16;101591.59;;;0.60;100.00
17260;BME280;8746;49.230;9.220;2023-01-25T05:41:41;101592.38;;;0.58;100.00
17260;BME280;8746;49.230;9.220;2023-01-25T05:44:07;101579.56;;;0.64;100.00
17260;BME280;8746;49.230;9.220;2023-01-25T05:46:32;101584.66;;;0.61;100.00
17260;BME280;8746;49.230;9.220;2023-01-25T05:48:58;101577.63;;;0.57;100.00
17260;BME280;8746;49.230;9.220;2023-01-25T05:51:23;101576.13;;;0.65;100.00
17260;BME280;8746;49.230;9.220;2023-01-25T05:53:48;101567.72;;;0.75;100.00
17260;BME280;8746;49.230;9.220;2023-01-25T05:56:14;101573.56;;;0.67;100.00
17260;BME280;8746;49.230;9.220;2023-01-25T05:58:39;101568.41;;;0.68;100.00
17260;BME280;8746;49.230;9.220;2023-01-25T06:01:06;101558.28;;;0.77;100.00
17260;BME280;8746;49.230;9.220;2023-01-25T06:03:32;101558.03;;;0.70;100.00
17260;BME280;8746;49.230;9.220;2023-01-25T06:05:59;101558.78;;;0.64;100.00
17260;BME280;8746;49.230;9.220;2023-01-25T06:08:29;101561.44;;;0.67;100.00
17260;BME280;8746;49.230;9.220;2023-01-25T06:10:55;101568.34;;;0.65;100.00
17260;BME280;8746;49.230;9.220;2023-01-25T06:13:20;101564.81;;;0.63;100.00
17260;BME280;8746;49.230;9.220;2023-01-25T06:15:56;101571.78;;;0.64;100.00
17260;BME280;8746;49.230;9.220;2023-01-25T06:18:22;101557.06;;;0.64;100.00
17260;BME280;8746;49.230;9.220;2023-01-25T06:20:51;101557.78;;;0.59;100.00
17260;BME280;8746;49.230;9.220;2023-01-25T06:23:16;101547.50;;;0.63;100.00
17260;BME280;8746;49.230;9.220;2023-01-25T06:25:42;101551.78;;;0.61;100.00
17260;BME280;8746;49.230;9.220;2023-01-25T06:28:08;101547.47;;;0.62;100.00
17260;BME280;8746;49.230;9.220;2023-01-25T06:30:34;101547.41;;;0.59;100.00
17260;BME280;8746;49.230;9.220;2023-01-25T06:33:00;101548.47;;;0.67;100.00
17260;BME280;8746;49.230;9.220;2023-01-25T06:35:26;101543.25;;;0.67;100.00
17260;BME280;8746;49.230;9.220;2023-01-25T06:37:55;101548.41;;;0.64;100.00
17260;BME280;8746;49.230;9.220;2023-01-25T06:40:21;101553.59;;;0.64;100.00
17260;BME280;8746;49.230;9.220;2023-01-25T06:42:46;101557.19;;;0.69;100.00
17260;BME280;8746;49.230;9.220;2023-01-25T06:45:12;101553.66;;;0.67;100.00
17260;BME280;8746;49.230;9.220;2023-01-25T06:47:38;101552.69;;;0.63;100.00
17260;BME280;8746;49.230;9.220;2023-01-25T06:50:03;101557.19;;;0.69;100.00
17260;BME280;8746;49.230;9.220;2023-01-25T06:52:28;101569.19;;;0.64;100.00
17260;BME280;8746;49.230;9.220;2023-01-25T06:54:56;101564.16;;;0.70;100.00
17260;BME280;8746;49.230;9.220;2023-01-25T06:57:21;101570.94;;;0.65;100.00
17260;BME280;8746;49.230;9.220;2023-01-25T06:59:46;101554.69;;;0.72;100.00
17260;BME280;8746;49.230;9.220;2023-01-25T07:02:15;101564.38;;;0.79;100.00
17260;BME280;8746;49.230;9.220;2023-01-25T07:04:40;101560.19;;;0.85;100.00
17260;BME280;8746;49.230;9.220;2023-01-25T07:07:09;101561.03;;;0.84;100.00
17260;BME280;8746;49.230;9.220;2023-01-25T07:09:35;101554.75;;;0.75;100.00
17260;BME280;8746;49.230;9.220;2023-01-25T07:12:00;101545.97;;;0.70;100.00
17260;BME280;8746;49.230;9.220;2023-01-25T07:14:29;101552.00;;;0.69;100.00
17260;BME280;8746;49.230;9.220;2023-01-25T07:16:54;101551.94;;;0.66;100.00
17260;BME280;8746;49.230;9.220;2023-01-25T07:19:19;101550.53;;;0.80;100.00
17260;BME280;8746;49.230;9.220;2023-01-25T07:21:44;101545.03;;;0.68;100.00
17260;BME280;8746;49.230;9.220;2023-01-25T07:24:14;101547.63;;;0.68;100.00
17260;BME280;8746;49.230;9.220;2023-01-25T07:26:40;101547.09;;;0.82;100.00
17260;BME280;8746;49.230;9.220;2023-01-25T07:29:06;101546.88;;;0.72;100.00
17260;BME280;8746;49.230;9.220;2023-01-25T07:31:34;101538.06;;;0.67;100.00
17260;BME280;8746;49.230;9.220;2023-01-25T07:33:59;101539.72;;;0.63;100.00
17260;BME280;8746;49.230;9.220;2023-01-25T07:36:25;101543.25;;;0.67;100.00
17260;BME280;8746;49.230;9.220;2023-01-25T07:38:54;101543.41;;;0.73;100.00
17260;BME280;8746;49.230;9.220;2023-01-25T07:41:20;101540.88;;;0.75;100.00
17260;BME280;8746;49.230;9.220;2023-01-25T07:43:46;101535.84;;;0.81;100.00
17260;BME280;8746;49.230;9.220;2023-01-25T07:46:12;101534.88;;;0.77;100.00
17260;BME280;8746;49.230;9.220;2023-01-25T07:48:39;101536.66;;;0.78;100.00
17260;BME280;8746;49.230;9.220;2023-01-25T07:51:06;101532.91;;;1.02;100.00
17260;BME280;8746;49.230;9.220;2023-01-25T07:53:55;101545.34;;;0.80;100.00
17260;BME280;8746;49.230;9.220;2023-01-25T07:56:23;101538.34;;;0.78;100.00
17260;BME280;8746;49.230;9.220;2023-01-25T07:58:51;101541.91;;;0.82;100.00
17260;BME280;8746;49.230;9.220;2023-01-25T08:01:20;101545.28;;;0.77;100.00
17260;BME280;8746;49.230;9.220;2023-01-25T08:03:46;101554.06;;;0.83;100.00
17260;BME280;8746;49.230;9.220;2023-01-25T08:06:12;101556.50;;;0.76;100.00
17260;BME280;8746;49.230;9.220;2023-01-25T08:08:42;101551.22;;;0.73;100.00
17260;BME280;8746;49.230;9.220;2023-01-25T08:11:11;101554.94;;;0.83;99.38
17260;BME280;8746;49.230;9.220;2023-01-25T08:13:40;101555.84;;;0.84;99.91
17260;BME280;8746;49.230;9.220;2023-01-25T08:16:10;101550.94;;;0.96;98.92
17260;BME280;8746;49.230;9.220;2023-01-25T08:18:35;101544.19;;;0.69;99.04
17260;BME280;8746;49.230;9.220;2023-01-25T08:21:01;101540.59;;;0.64;99.47
17260;BME280;8746;49.230;9.220;2023-01-25T08:23:27;101536.28;;;0.64;100.00
17260;BME280;8746;49.230;9.220;2023-01-25T08:25:53;101538.06;;;0.67;99.17
17260;BME280;8746;49.230;9.220;2023-01-25T08:28:18;101532.06;;;0.70;99.67
17260;BME280;8746;49.230;9.220;2023-01-25T08:30:43;101527.63;;;0.64;98.81
17260;BME280;8746;49.230;9.220;2023-01-25T08:33:09;101533.03;;;0.73;99.04
17260;BME280;8746;49.230;9.220;2023-01-25T08:35:34;101535.59;;;0.72;98.48
17260;BME280;8746;49.230;9.220;2023-01-25T08:38:02;101531.97;;;0.65;98.41
17260;BME280;8746;49.230;9.220;2023-01-25T08:40:27;101536.34;;;0.66;98.10
17260;BME280;8746;49.230;9.220;2023-01-25T08:42:52;101541.84;;;0.78;98.42
17260;BME280;8746;49.230;9.220;2023-01-25T08:45:18;101533.13;;;0.76;97.71
17260;BME280;8746;49.230;9.220;2023-01-25T08:47:43;101536.81;;;0.85;97.36
17260;BME280;8746;49.230;9.220;2023-01-25T08:50:09;101533.94;;;0.74;97.61
17260;BME280;8746;49.230;9.220;2023-01-25T08:52:35;101531.31;;;0.72;97.99
17260;BME280;8746;49.230;9.220;2023-01-25T08:55:00;101525.41;;;0.79;97.73
17260;BME280;8746;49.230;9.220;2023-01-25T08:57:26;101527.09;;;0.77;96.85
17260;BME280;8746;49.230;9.220;2023-01-25T08:59:51;101523.72;;;0.82;97.29
17260;BME280;8746;49.230;9.220;2023-01-25T09:02:16;101528.34;;;0.93;97.71
17260;BME280;8746;49.230;9.220;2023-01-25T09:04:43;101518.88;;;0.95;97.04
17260;BME280;8746;49.230;9.220;2023-01-25T09:07:08;101516.88;;;0.85;97.51
17260;BME280;8746;49.230;9.220;2023-01-25T09:09:34;101529.00;;;0.85;97.69
17260;BME280;8746;49.230;9.220;2023-01-25T09:11:59;101510.97;;;0.91;98.41
17260;BME280;8746;49.230;9.220;2023-01-25T09:14:25;101511.72;;;0.87;98.18
17260;BME280;8746;49.230;9.220;2023-01-25T09:16:50;101505.03;;;0.96;97.80
17260;BME280;8746;49.230;9.220;2023-01-25T09:19:15;101504.84;;;0.89;97.47
17260;BME280;8746;49.230;9.220;2023-01-25T09:21:41;101512.78;;;0.95;97.20
17260;BME280;8746;49.230;9.220;2023-01-25T09:24:06;101506.47;;;0.84;97.88
17260;BME280;8746;49.230;9.220;2023-01-25T09:26:40;101505.53;;;0.82;97.68
17260;BME280;8746;49.230;9.220;2023-01-25T09:29:06;101502.34;;;0.92;97.92
17260;BME280;8746;49.230;9.220;2023-01-25T09:31:32;101503.09;;;0.88;97.82
17260;BME280;8746;49.230;9.220;2023-01-25T09:33:58;101502.25;;;0.89;97.75
17260;BME280;8746;49.230;9.220;2023-01-25T09:36:24;101508.00;;;0.77;97.09
17260;BME280;8746;49.230;9.220;2023-01-25T09:38:49;101502.81;;;0.77;97.59
17260;BME280;8746;49.230;9.220;2023-01-25T09:44:01;101501.09;;;0.76;96.47
17260;BME280;8746;49.230;9.220;2023-01-25T09:47:02;101494.00;;;0.70;96.50
17260;BME280;8746;49.230;9.220;2023-01-25T09:54:44;101491.47;;;0.73;96.47
17260;BME280;8746;49.230;9.220;2023-01-25T09:57:14;101497.69;;;0.78;96.44
17260;BME280;8746;49.230;9.220;2023-01-25T09:59:41;101492.53;;;0.82;96.42
17260;BME280;8746;49.230;9.220;2023-01-25T10:02:30;101485.69;;;0.84;96.21
17260;BME280;8746;49.230;9.220;2023-01-25T10:05:05;101484.91;;;0.88;96.23
17260;BME280;8746;49.230;9.220;2023-01-25T10:07:54;101487.28;;;0.78;95.97
17260;BME280;8746;49.230;9.220;2023-01-25T10:10:39;101482.28;;;0.86;96.06
17260;BME280;8746;49.230;9.220;2023-01-25T10:13:11;101477.94;;;0.87;95.90
17260;BME280;8746;49.230;9.220;2023-01-25T10:15:48;101484.75;;;0.82;96.26
17260;BME280;8746;49.230;9.220;2023-01-25T10:26:19;101476.53;;;1.00;97.19
17260;BME280;8746;49.230;9.220;2023-01-25T10:34:19;101467.19;;;1.08;95.36
17260;BME280;8746;49.230;9.220;2023-01-25T10:36:53;101464.38;;;0.99;96.00
17260;BME280;8746;49.230;9.220;2023-01-25T10:39:19;101464.25;;;0.94;94.74
17260;BME280;8746;49.230;9.220;2023-01-25T10:42:06;101465.50;;;1.10;95.04
17260;BME280;8746;49.230;9.220;2023-01-25T10:44:34;101467.22;;;1.09;95.00
17260;BME280;8746;49.230;9.220;2023-01-25T10:47:04;101470.56;;;1.04;94.52
17260;BME280;8746;49.230;9.220;2023-01-25T10:49:42;101465.44;;;1.07;94.35
17260;BME280;8746;49.230;9.220;2023-01-25T10:52:16;101457.66;;;1.08;93.60
17260;BME280;8746;49.230;9.220;2023-01-25T10:54:42;101464.22;;;0.92;94.47
17260;BME280;8746;49.230;9.220;2023-01-25T10:57:13;101450.25;;;0.87;94.63
17260;BME280;8746;49.230;9.220;2023-01-25T10:59:43;101455.09;;;0.73;94.79
17260;BME280;8746;49.230;9.220;2023-01-25T11:07:47;101432.94;;;0.88;94.68
17260;BME280;8746;49.230;9.220;2023-01-25T11:10:31;101433.03;;;0.92;94.64
17260;BME280;8746;49.230;9.220;2023-01-25T11:15:38;101431.31;;;0.93;94.32
17260;BME280;8746;49.230;9.220;2023-01-25T11:18:06;101428.38;;;1.16;94.41
17260;BME280;8746;49.230;9.220;2023-01-25T11:20:36;101423.31;;;1.22;93.76
17260;BME280;8746;49.230;9.220;2023-01-25T11:23:01;101420.78;;;1.25;94.27
17260;BME280;8746;49.230;9.220;2023-01-25T11:25:32;101410.84;;;1.05;94.01
17260;BME280;8746;49.230;9.220;2023-01-25T11:28:19;101407.16;;;0.95;93.99
17260;BME280;8746;49.230;9.220;2023-01-25T11:30:45;101410.34;;;0.84;93.75
17260;BME280;8746;49.230;9.220;2023-01-25T11:33:13;101401.19;;;1.01;93.84
17260;BME280;8746;49.230;9.220;2023-01-25T11:38:21;101390.75;;;0.98;93.26
17260;BME280;8746;49.230;9.220;2023-01-25T11:41:05;101387.25;;;0.98;92.81
17260;BME280;8746;49.230;9.220;2023-01-25T11:46:47;101382.81;;;0.92;94.27
17260;BME280;8746;49.230;9.220;2023-01-25T11:52:30;101361.25;;;0.98;94.09
17260;BME280;8746;49.230;9.220;2023-01-25T11:55:20;101357.84;;;1.00;93.72
17260;BME280;8746;49.230;9.220;2023-01-25T12:00:52;101346.34;;;0.89;93.95
17260;BME280;8746;49.230;9.220;2023-01-25T12:16:56;101305.75;;;0.94;93.72
17260;BME280;8746;49.230;9.220;2023-01-25T12:22:44;101294.38;;;0.89;93.18
17260;BME280;8746;49.230;9.220;2023-01-25T12:25:28;101287.44;;;0.88;93.36
17260;BME280;8746;49.230;9.220;2023-01-25T12:28:08;101276.91;;;0.82;93.66
17260;BME280;8746;49.230;9.220;2023-01-25T12:30:59;101273.56;;;0.86;93.12
17260;BME280;8746;49.230;9.220;2023-01-25T12:33:30;101268.25;;;0.81;93.54
17260;BME280;8746;49.230;9.220;2023-01-25T12:38:42;101239.31;;;1.05;93.38
17260;BME280;8746;49.230;9.220;2023-01-25T12:44:14;101239.97;;;0.96;93.37
17260;BME280;8746;49.230;9.220;2023-01-25T12:46:45;101226.72;;;0.83;92.97
17260;BME280;8746;49.230;9.220;2023-01-25T12:49:50;101232.81;;;0.85;92.60
17260;BME280;8746;49.230;9.220;2023-01-25T12:54:56;101224.25;;;0.90;93.62
17260;BME280;8746;49.230;9.220;2023-01-25T13:02:59;101215.94;;;1.08;91.43
17260;BME280;8746;49.230;9.220;2023-01-25T13:08:09;101205.47;;;1.04;92.68
17260;BME280;8746;49.230;9.220;2023-01-25T13:10:42;101208.97;;;1.04;91.38
17260;BME280;8746;49.230;9.220;2023-01-25T13:13:36;101205.56;;;1.08;90.74
17260;BME280;8746;49.230;9.220;2023-01-25T13:18:48;101195.16;;;1.07;91.19
17260;BME280;8746;49.230;9.220;2023-01-25T13:21:41;101194.44;;;1.16;91.43
17260;BME280;8746;49.230;9.220;2023-01-25T13:32:13;101185.91;;;1.23;91.29
17260;BME280;8746;49.230;9.220;2023-01-25T13:39:46;101175.78;;;0.91;91.61
17260;BME280;8746;49.230;9.220;2023-01-25T13:44:42;101178.19;;;0.82;92.52
17260;BME280;8746;49.230;9.220;2023-01-25T13:47:11;101179.94;;;0.83;92.55
17260;BME280;8746;49.230;9.220;2023-01-25T13:49:46;101177.34;;;0.81;93.11
17260;BME280;8746;49.230;9.220;2023-01-25T13:52:15;101167.88;;;0.85;92.42
17260;BME280;8746;49.230;9.220;2023-01-25T13:54:43;101162.91;;;0.97;92.92
17260;BME280;8746;49.230;9.220;2023-01-25T13:57:14;101164.94;;;1.14;92.96
17260;BME280;8746;49.230;9.220;2023-01-25T13:59:39;101164.94;;;1.14;91.04
17260;BME280;8746;49.230;9.220;2023-01-25T14:02:19;101163.06;;;1.06;91.83
17260;BME280;8746;49.230;9.220;2023-01-25T14:04:48;101156.03;;;0.99;91.74
17260;BME280;8746;49.230;9.220;2023-01-25T14:07:16;101168.81;;;0.88;91.97
17260;BME280;8746;49.230;9.220;2023-01-25T14:09:43;101162.69;;;0.85;92.60
17260;BME280;8746;49.230;9.220;2023-01-25T14:12:10;101162.91;;;0.97;93.41
17260;BME280;8746;49.230;9.220;2023-01-25T14:14:36;101166.34;;;0.94;92.08
17260;BME280;8746;49.230;9.220;2023-01-25T14:19:34;101143.88;;;0.98;91.92
17260;BME280;8746;49.230;9.220;2023-01-25T14:22:30;101143.75;;;0.92;92.12
17260;BME280;8746;49.230;9.220;2023-01-25T14:25:13;101134.97;;;0.87;92.36
17260;BME280;8746;49.230;9.220;2023-01-25T14:27:48;101139.44;;;0.94;92.96
17260;BME280;8746;49.230;9.220;2023-01-25T14:32:42;101130.78;;;0.92;91.37
17260;BME280;8746;49.230;9.220;2023-01-25T14:37:56;101135.66;;;0.76;92.36
17260;BME280;8746;49.230;9.220;2023-01-25T14:40:23;101127.06;;;0.79;92.88
17260;BME280;8746;49.230;9.220;2023-01-25T14:42:50;101124.56;;;0.84;92.55
17260;BME280;8746;49.230;9.220;2023-01-25T14:45:17;101120.41;;;0.95;92.19
17260;BME280;8746;49.230;9.220;2023-01-25T14:47:43;101112.47;;;0.86;92.01
17260;BME280;8746;49.230;9.220;2023-01-25T14:53:11;101102.75;;;0.77;92.94
17260;BME280;8746;49.230;9.220;2023-01-25T14:55:42;101101.94;;;0.79;92.52
17260;BME280;8746;49.230;9.220;2023-01-25T14:58:13;101103.53;;;0.71;92.15
17260;BME280;8746;49.230;9.220;2023-01-25T15:00:41;101100.72;;;0.59;93.42
17260;BME280;8746;49.230;9.220;2023-01-25T15:03:14;101100.16;;;0.75;92.42
17260;BME280;8746;49.230;9.220;2023-01-25T15:05:44;101095.69;;;0.68;92.78